createdAt,value
2018-03-10T00:00:42.136Z,3.45
2018-03-10T00:03:09.778Z,3.48
2018-03-10T00:05:37.463Z,3.63
2018-03-10T00:08:05.098Z,3.42
2018-03-10T00:10:32.794Z,3.27
2018-03-10T00:13:00.426Z,3.24
2018-03-10T00:15:28.098Z,3.30
2018-03-10T00:17:55.728Z,3.07
2018-03-10T00:20:23.406Z,3.06
2018-03-10T00:22:51.042Z,3.11
2018-03-10T00:25:18.735Z,3.18
2018-03-10T00:27:46.449Z,3.11
2018-03-10T00:30:14.130Z,3.16
2018-03-10T00:32:41.772Z,3.24
2018-03-10T00:35:09.734Z,3.30
2018-03-10T00:37:37.819Z,3.27
2018-03-10T00:40:05.511Z,3.28
2018-03-10T00:42:33.146Z,3.30
2018-03-10T00:45:00.823Z,3.33
2018-03-10T00:47:28.517Z,3.38
2018-03-10T00:49:56.233Z,3.33
2018-03-10T00:52:23.928Z,3.36
2018-03-10T00:54:51.565Z,3.38
2018-03-10T00:57:19.248Z,3.32
2018-03-10T00:59:46.874Z,3.27
2018-03-10T01:02:14.556Z,3.24
2018-03-10T01:04:42.253Z,3.17
2018-03-10T01:07:09.928Z,3.17
2018-03-10T01:09:38.593Z,3.08
2018-03-10T01:12:06.269Z,3.14
2018-03-10T01:14:33.930Z,3.16
2018-03-10T01:17:01.656Z,3.13
2018-03-10T01:19:29.329Z,3.09
2018-03-10T01:21:57.040Z,3.05
2018-03-10T01:24:24.732Z,2.89
2018-03-10T01:26:52.413Z,2.79
2018-03-10T01:29:20.081Z,2.79
2018-03-10T01:31:47.799Z,2.72
2018-03-10T01:34:15.432Z,2.75
2018-03-10T01:36:43.160Z,2.74
2018-03-10T01:39:10.798Z,2.78
2018-03-10T01:41:38.692Z,2.74
2018-03-10T01:44:06.335Z,2.69
2018-03-10T01:46:34.048Z,2.73
2018-03-10T01:49:01.736Z,2.76
2018-03-10T01:51:29.452Z,2.80
2018-03-10T01:53:57.200Z,2.81
2018-03-10T01:56:24.852Z,2.73
2018-03-10T01:58:52.586Z,2.73
2018-03-10T02:01:20.228Z,2.69
2018-03-10T02:03:47.917Z,2.67
2018-03-10T02:06:15.603Z,2.63
2018-03-10T02:08:43.299Z,2.43
2018-03-10T02:11:10.967Z,2.51
2018-03-10T02:13:38.695Z,2.56
2018-03-10T02:16:06.394Z,2.47
2018-03-10T02:18:34.077Z,2.55
2018-03-10T02:21:01.710Z,2.60
2018-03-10T02:23:29.388Z,2.70
2018-03-10T02:25:57.037Z,2.79
2018-03-10T02:28:24.747Z,2.92
2018-03-10T02:30:52.398Z,3.04
2018-03-10T02:33:20.110Z,3.06
2018-03-10T02:35:47.789Z,3.09
2018-03-10T02:38:15.433Z,3.27
2018-03-10T02:40:43.208Z,3.06
2018-03-10T02:43:10.853Z,2.77
2018-03-10T02:45:38.592Z,2.85
2018-03-10T02:48:07.104Z,2.89
2018-03-10T02:50:34.794Z,2.83
2018-03-10T02:53:02.430Z,2.85
2018-03-10T02:55:30.125Z,2.93
2018-03-10T02:57:57.756Z,2.89
2018-03-10T03:00:25.431Z,2.94
2018-03-10T03:02:53.114Z,3.02
2018-03-10T03:05:20.833Z,3.16
2018-03-10T03:07:48.471Z,3.29
2018-03-10T03:10:16.157Z,3.33
2018-03-10T03:12:43.827Z,3.33
2018-03-10T03:15:11.510Z,3.33
2018-03-10T03:17:39.194Z,3.33
2018-03-10T03:20:06.832Z,3.37
2018-03-10T03:22:34.506Z,3.37
2018-03-10T03:25:02.183Z,3.41
2018-03-10T03:27:29.917Z,3.47
2018-03-10T03:29:57.555Z,3.49
2018-03-10T03:32:25.240Z,3.64
2018-03-10T03:34:52.909Z,3.63
2018-03-10T03:37:20.636Z,3.64
2018-03-10T03:39:48.308Z,3.61
2018-03-10T03:42:15.944Z,3.65
2018-03-10T03:44:43.612Z,3.69
2018-03-10T03:47:11.305Z,3.80
2018-03-10T03:49:38.990Z,3.87
2018-03-10T03:52:06.716Z,3.92
2018-03-10T03:54:34.363Z,3.90
2018-03-10T03:57:02.033Z,3.74
2018-03-10T03:59:29.710Z,3.81
2018-03-10T04:01:57.386Z,3.81
2018-03-10T04:04:25.023Z,3.73
2018-03-10T04:06:52.711Z,3.85
2018-03-10T04:09:20.341Z,4.00
2018-03-10T04:11:48.013Z,4.07
2018-03-10T04:14:15.654Z,4.03
2018-03-10T04:16:43.340Z,3.99
2018-03-10T04:19:10.987Z,4.07
2018-03-10T04:21:38.664Z,4.10
2018-03-10T04:24:06.303Z,4.09
2018-03-10T04:26:33.962Z,4.07
2018-03-10T04:29:01.598Z,4.16
2018-03-10T04:31:29.282Z,4.09
2018-03-10T04:33:56.928Z,4.15
2018-03-10T04:36:24.611Z,4.08
2018-03-10T04:38:52.252Z,4.08
2018-03-10T04:41:19.975Z,4.13
2018-03-10T04:43:47.618Z,4.32
2018-03-10T04:46:15.364Z,4.31
2018-03-10T04:48:43.050Z,4.29
2018-03-10T04:51:10.686Z,4.25
2018-03-10T04:53:38.362Z,4.43
2018-03-10T04:56:06.019Z,4.56
2018-03-10T04:58:33.725Z,4.39
2018-03-10T05:01:01.414Z,4.41
2018-03-10T05:03:29.089Z,4.67
2018-03-10T05:05:56.740Z,4.67
2018-03-10T05:08:24.424Z,4.72
2018-03-10T05:10:52.055Z,4.73
2018-03-10T05:13:19.771Z,4.58
2018-03-10T05:15:47.474Z,4.62
2018-03-10T05:18:15.155Z,4.67
2018-03-10T05:20:42.843Z,4.82
2018-03-10T05:23:10.531Z,4.36
2018-03-10T05:25:38.174Z,4.13
2018-03-10T05:28:05.878Z,4.14
2018-03-10T05:30:33.533Z,4.04
2018-03-10T05:33:01.215Z,4.09
2018-03-10T05:35:28.866Z,4.19
2018-03-10T05:37:56.573Z,4.27
2018-03-10T05:40:24.216Z,4.17
2018-03-10T05:42:51.896Z,4.22
2018-03-10T05:45:19.530Z,4.24
2018-03-10T05:47:47.212Z,4.31
2018-03-10T05:50:14.845Z,4.24
2018-03-10T05:52:42.581Z,4.18
2018-03-10T05:55:10.218Z,4.22
2018-03-10T05:57:37.960Z,4.26
2018-03-10T06:00:05.626Z,4.30
2018-03-10T06:02:34.229Z,4.22
2018-03-10T06:05:01.869Z,4.25
2018-03-10T06:07:29.578Z,4.33
2018-03-10T06:09:57.217Z,4.28
2018-03-10T06:12:24.974Z,4.33
2018-03-10T06:14:52.604Z,4.28
2018-03-10T06:17:20.350Z,4.25
2018-03-10T06:19:48.011Z,4.31
2018-03-10T06:22:15.766Z,4.42
2018-03-10T06:24:43.470Z,4.49
2018-03-10T06:27:11.170Z,4.46
2018-03-10T06:29:38.849Z,4.52
2018-03-10T06:32:06.550Z,4.52
2018-03-10T06:34:34.222Z,4.60
2018-03-10T06:37:01.893Z,4.54
2018-03-10T06:39:29.614Z,4.59
2018-03-10T06:41:57.270Z,4.61
2018-03-10T06:44:25.031Z,4.60
2018-03-10T06:46:52.671Z,4.74
2018-03-10T06:49:20.387Z,4.73
2018-03-10T06:51:48.032Z,4.65
2018-03-10T06:54:15.728Z,4.62
2018-03-10T06:56:43.382Z,4.67
2018-03-10T06:59:11.057Z,4.68
2018-03-10T07:01:38.690Z,4.64
2018-03-10T07:04:06.476Z,4.63
2018-03-10T07:06:34.150Z,4.73
2018-03-10T07:09:01.791Z,4.86
2018-03-10T07:11:29.525Z,4.95
2018-03-10T07:13:57.187Z,5.02
2018-03-10T07:16:24.937Z,5.03
2018-03-10T07:18:52.599Z,5.17
2018-03-10T07:21:20.280Z,5.13
2018-03-10T07:23:47.923Z,5.11
2018-03-10T07:26:15.605Z,5.23
2018-03-10T07:28:43.241Z,5.18
2018-03-10T07:31:10.901Z,5.19
2018-03-10T07:33:38.582Z,5.22
2018-03-10T07:36:06.255Z,5.31
2018-03-10T07:38:33.925Z,5.30
2018-03-10T07:41:01.634Z,5.29
2018-03-10T07:43:29.327Z,5.28
2018-03-10T07:45:57.077Z,5.33
2018-03-10T07:48:24.749Z,5.40
2018-03-10T07:50:52.484Z,5.45
2018-03-10T07:53:20.166Z,5.45
2018-03-10T07:55:48.059Z,5.49
2018-03-10T07:58:15.835Z,5.51
2018-03-10T08:00:43.615Z,5.50
2018-03-10T08:03:11.262Z,5.59
2018-03-10T08:05:39.060Z,5.65
2018-03-10T08:08:06.758Z,5.76
2018-03-10T08:10:34.419Z,5.84
2018-03-10T08:13:02.233Z,5.93
2018-03-10T08:15:29.961Z,5.88
2018-03-10T08:17:57.682Z,5.97
2018-03-10T08:20:25.385Z,5.97
2018-03-10T08:22:53.057Z,5.95
2018-03-10T08:25:20.763Z,5.95
2018-03-10T08:27:48.417Z,5.90
2018-03-10T08:30:16.106Z,5.90
2018-03-10T08:32:43.826Z,5.86
2018-03-10T08:35:11.472Z,5.95
2018-03-10T08:37:39.161Z,5.95
2018-03-10T08:40:06.822Z,5.92
2018-03-10T08:42:34.535Z,5.87
2018-03-10T08:45:02.250Z,5.89
2018-03-10T08:47:29.922Z,5.98
2018-03-10T08:49:57.561Z,6.01
2018-03-10T08:52:25.314Z,6.11
2018-03-10T08:54:52.971Z,6.19
2018-03-10T08:57:20.664Z,6.20
2018-03-10T08:59:48.347Z,6.28
2018-03-10T09:02:16.094Z,6.29
2018-03-10T09:04:43.820Z,6.36
2018-03-10T09:07:11.522Z,6.46
2018-03-10T09:09:39.173Z,6.65
2018-03-10T09:12:06.836Z,7.01
2018-03-10T09:14:34.527Z,7.07
2018-03-10T09:17:02.146Z,7.25
2018-03-10T09:19:29.881Z,7.31
2018-03-10T09:21:57.547Z,7.27
2018-03-10T09:24:25.335Z,7.23
2018-03-10T09:26:53.020Z,6.92
2018-03-10T09:29:20.737Z,7.04
2018-03-10T09:31:48.462Z,6.88
2018-03-10T09:34:16.158Z,7.01
2018-03-10T09:36:43.852Z,6.87
2018-03-10T09:39:11.566Z,6.75
2018-03-10T09:41:39.208Z,6.73
2018-03-10T09:44:06.917Z,6.81
2018-03-10T09:46:34.580Z,6.73
2018-03-10T09:49:02.305Z,6.88
2018-03-10T09:51:29.980Z,6.85
2018-03-10T09:53:57.652Z,6.75
2018-03-10T09:56:25.423Z,6.76
2018-03-10T09:58:53.145Z,6.85
2018-03-10T10:01:20.863Z,6.84
2018-03-10T10:03:48.562Z,6.85
2018-03-10T10:06:16.257Z,6.84
2018-03-10T10:08:43.980Z,6.76
2018-03-10T10:11:11.649Z,6.75
2018-03-10T10:13:39.388Z,6.70
2018-03-10T10:16:07.068Z,6.72
2018-03-10T10:18:34.753Z,6.77
2018-03-10T10:21:02.461Z,6.78
2018-03-10T10:23:30.157Z,6.75
2018-03-10T10:25:57.891Z,6.84
2018-03-10T10:28:25.569Z,6.78
2018-03-10T10:30:53.290Z,6.90
2018-03-10T10:33:20.921Z,6.91
2018-03-10T10:35:48.599Z,6.87
2018-03-10T10:38:16.254Z,6.83
2018-03-10T10:40:44.025Z,6.83
2018-03-10T10:43:11.678Z,6.76
2018-03-10T10:45:39.372Z,6.72
2018-03-10T10:48:07.038Z,6.75
2018-03-10T10:50:34.736Z,6.76
2018-03-10T10:53:02.401Z,6.71
2018-03-10T10:55:30.075Z,6.71
2018-03-10T10:58:01.428Z,6.64
2018-03-10T11:00:35.011Z,6.69
2018-03-10T11:03:03.495Z,6.76
2018-03-10T11:05:31.165Z,6.87
2018-03-10T11:07:58.800Z,6.88
2018-03-10T11:10:26.501Z,6.90
2018-03-10T11:12:54.136Z,6.86
2018-03-10T11:15:21.863Z,6.92
2018-03-10T11:17:49.532Z,7.03
2018-03-10T11:20:17.244Z,7.08
2018-03-10T11:22:45.712Z,7.08
2018-03-10T11:25:13.427Z,7.11
2018-03-10T11:27:41.126Z,7.14
2018-03-10T11:30:08.889Z,7.26
2018-03-10T11:32:36.576Z,7.37
2018-03-10T11:35:04.291Z,7.40
2018-03-10T11:37:31.990Z,7.36
2018-03-10T11:39:59.663Z,7.46
2018-03-10T11:42:27.390Z,7.37
2018-03-10T11:44:55.043Z,7.40
2018-03-10T11:47:22.774Z,7.57
2018-03-10T11:49:50.437Z,7.53
2018-03-10T11:52:18.149Z,7.41
2018-03-10T11:54:45.824Z,7.42
2018-03-10T11:57:13.605Z,7.33
2018-03-10T11:59:41.268Z,7.46
2018-03-10T12:02:09.003Z,7.45
2018-03-10T12:04:36.782Z,7.53
2018-03-10T12:07:04.523Z,7.57
2018-03-10T12:09:32.191Z,7.53
2018-03-10T12:11:59.885Z,7.42
2018-03-10T12:14:27.539Z,7.43
2018-03-10T12:16:55.272Z,7.49
2018-03-10T12:19:22.937Z,7.52
2018-03-10T12:21:50.649Z,7.46
2018-03-10T12:24:18.320Z,7.37
2018-03-10T12:26:45.982Z,7.33
2018-03-10T12:29:13.683Z,7.29
2018-03-10T12:31:41.333Z,7.26
2018-03-10T12:34:09.061Z,7.29
2018-03-10T12:36:36.813Z,7.28
2018-03-10T12:39:04.576Z,7.18
2018-03-10T12:41:32.245Z,7.15
2018-03-10T12:43:59.954Z,7.22
2018-03-10T12:46:27.672Z,7.21
2018-03-10T12:48:55.393Z,7.16
2018-03-10T12:51:23.095Z,7.09
2018-03-10T12:53:50.807Z,7.11
2018-03-10T12:56:18.583Z,7.17
2018-03-10T12:58:46.284Z,7.19
2018-03-10T13:01:14.080Z,7.23
2018-03-10T13:03:41.781Z,7.27
2018-03-10T13:06:09.538Z,7.35
2018-03-10T13:08:37.206Z,7.33
2018-03-10T13:11:04.940Z,7.35
2018-03-10T13:13:32.662Z,7.32
2018-03-10T13:16:00.410Z,7.26
2018-03-10T13:18:28.182Z,7.26
2018-03-10T13:20:55.874Z,7.29
2018-03-10T13:23:23.591Z,7.42
2018-03-10T13:25:51.235Z,7.42
2018-03-10T13:28:18.956Z,7.26
2018-03-10T13:30:46.654Z,7.23
2018-03-10T13:33:14.399Z,7.17
2018-03-10T13:35:42.090Z,7.15
2018-03-10T13:38:09.830Z,7.03
2018-03-10T13:40:37.510Z,7.07
2018-03-10T13:43:05.254Z,7.09
2018-03-10T13:45:32.942Z,7.08
2018-03-10T13:48:00.640Z,7.05
2018-03-10T13:50:28.340Z,7.06
2018-03-10T13:52:56.077Z,7.09
2018-03-10T13:55:23.735Z,7.07
2018-03-10T13:57:51.416Z,7.10
2018-03-10T14:00:19.106Z,7.11
2018-03-10T14:02:58.681Z,7.12
2018-03-10T14:05:26.399Z,7.14
2018-03-10T14:07:54.114Z,7.17
2018-03-10T14:10:21.814Z,7.23
2018-03-10T14:12:49.538Z,7.24
2018-03-10T14:15:17.201Z,7.21
2018-03-10T14:17:44.907Z,7.20
2018-03-10T14:20:12.619Z,7.21
2018-03-10T14:22:40.316Z,7.23
2018-03-10T14:25:07.975Z,7.20
2018-03-10T14:27:35.721Z,7.22
2018-03-10T14:30:03.382Z,7.21
2018-03-10T14:32:31.142Z,7.21
2018-03-10T14:34:58.793Z,7.25
2018-03-10T14:37:26.576Z,7.23
2018-03-10T14:39:54.212Z,7.26
2018-03-10T14:42:21.904Z,7.22
2018-03-10T14:44:49.589Z,7.28
2018-03-10T14:47:17.360Z,7.26
2018-03-10T14:49:45.905Z,7.25
2018-03-10T14:52:13.609Z,7.27
2018-03-10T14:54:41.345Z,7.18
2018-03-10T14:57:09.025Z,7.15
2018-03-10T14:59:36.734Z,7.18
2018-03-10T15:02:04.470Z,7.22
2018-03-10T15:04:36.953Z,7.29
2018-03-10T15:07:04.662Z,7.37
2018-03-10T15:09:32.354Z,7.40
2018-03-10T15:12:00.046Z,7.40
2018-03-10T15:14:27.762Z,7.43
2018-03-10T15:16:55.462Z,7.39
2018-03-10T15:19:23.132Z,7.42
2018-03-10T15:21:50.782Z,7.38
2018-03-10T15:24:18.492Z,7.41
2018-03-10T15:26:46.155Z,7.37
2018-03-10T15:29:13.849Z,7.36
2018-03-10T15:31:41.499Z,7.44
2018-03-10T15:34:09.291Z,7.42
2018-03-10T15:36:36.964Z,7.40
2018-03-10T15:39:04.770Z,7.43
2018-03-10T15:41:32.436Z,7.43
2018-03-10T15:44:00.197Z,7.42
2018-03-10T15:46:27.890Z,7.40
2018-03-10T15:48:55.577Z,7.49
2018-03-10T15:51:23.267Z,7.48
2018-03-10T15:53:50.967Z,7.46
2018-03-10T15:56:18.673Z,7.50
2018-03-10T15:58:46.360Z,7.51
2018-03-10T16:01:14.023Z,7.57
2018-03-10T16:03:41.770Z,7.61
2018-03-10T16:06:09.463Z,7.62
2018-03-10T16:08:37.164Z,7.62
2018-03-10T16:11:04.845Z,7.60
2018-03-10T16:13:32.550Z,7.56
2018-03-10T16:16:00.250Z,7.54
2018-03-10T16:18:27.960Z,7.59
2018-03-10T16:20:55.599Z,7.57
2018-03-10T16:23:23.288Z,7.59
2018-03-10T16:25:51.082Z,7.58
2018-03-10T16:28:18.807Z,7.57
2018-03-10T16:30:46.500Z,7.53
2018-03-10T16:33:14.231Z,7.52
2018-03-10T16:35:41.880Z,7.57
2018-03-10T16:38:09.553Z,7.58
2018-03-10T16:40:37.194Z,7.61
2018-03-10T16:43:04.920Z,7.54
2018-03-10T16:45:32.616Z,7.60
2018-03-10T16:48:00.314Z,7.60
2018-03-10T16:50:28.046Z,7.65
2018-03-10T16:52:55.718Z,7.70
2018-03-10T16:55:23.412Z,7.58
2018-03-10T16:57:51.070Z,7.80
2018-03-10T17:00:18.831Z,7.53
2018-03-10T17:02:46.460Z,7.48
2018-03-10T17:05:14.149Z,7.51
2018-03-10T17:07:41.961Z,7.56
2018-03-10T17:10:09.685Z,7.65
2018-03-10T17:12:37.403Z,7.64
2018-03-10T17:15:05.290Z,7.64
2018-03-10T17:17:32.952Z,7.64
2018-03-10T17:20:00.635Z,7.67
2018-03-10T17:22:28.403Z,7.66
2018-03-10T17:24:56.185Z,7.73
2018-03-10T17:27:23.930Z,7.81
2018-03-10T17:29:51.657Z,7.85
2018-03-10T17:32:19.416Z,7.75
2018-03-10T17:34:47.098Z,7.86
2018-03-10T17:37:14.869Z,7.75
2018-03-10T17:39:42.629Z,7.73
2018-03-10T17:42:10.518Z,7.65
2018-03-10T17:44:38.252Z,7.61
2018-03-10T17:47:05.951Z,7.60
2018-03-10T17:49:33.757Z,7.53
2018-03-10T17:52:01.535Z,7.53
2018-03-10T17:54:29.283Z,7.54
2018-03-10T17:56:57.000Z,7.55
2018-03-10T17:59:24.749Z,7.57
2018-03-10T18:01:52.504Z,7.55
2018-03-10T18:04:20.183Z,7.54
2018-03-10T18:06:47.942Z,7.59
2018-03-10T18:09:15.668Z,7.58
2018-03-10T18:11:43.408Z,7.59
2018-03-10T18:14:11.079Z,7.56
2018-03-10T18:16:38.801Z,7.57
2018-03-10T18:19:06.530Z,7.66
2018-03-10T18:21:34.216Z,7.66
2018-03-10T18:24:01.971Z,7.71
2018-03-10T18:26:29.704Z,7.69
2018-03-10T18:28:57.494Z,7.80
2018-03-10T18:31:25.186Z,7.85
2018-03-10T18:33:52.881Z,7.82
2018-03-10T18:36:20.597Z,7.83
2018-03-10T18:38:48.366Z,7.86
2018-03-10T18:41:16.052Z,7.96
2018-03-10T18:43:43.787Z,7.95
2018-03-10T18:46:11.510Z,7.97
2018-03-10T18:48:39.234Z,7.90
2018-03-10T18:51:07.019Z,7.87
2018-03-10T18:53:34.754Z,7.88
2018-03-10T18:56:02.491Z,7.93
2018-03-10T18:58:30.263Z,7.98
2018-03-10T19:00:58.017Z,8.03
2018-03-10T19:03:25.731Z,8.12
2018-03-10T19:05:53.466Z,8.09
2018-03-10T19:08:21.163Z,7.96
2018-03-10T19:10:48.896Z,7.90
2018-03-10T19:13:16.565Z,7.86
2018-03-10T19:15:44.289Z,7.83
2018-03-10T19:18:11.985Z,7.75
2018-03-10T19:20:39.816Z,7.69
2018-03-10T19:23:07.505Z,7.70
2018-03-10T19:25:35.238Z,7.72
2018-03-10T19:28:02.926Z,7.67
2018-03-10T19:30:30.663Z,7.67
2018-03-10T19:32:58.383Z,7.63
2018-03-10T19:35:26.105Z,7.63
2018-03-10T19:37:53.792Z,7.56
2018-03-10T19:40:21.554Z,7.56
2018-03-10T19:42:49.267Z,7.58
2018-03-10T19:45:16.978Z,7.56
2018-03-10T19:47:44.685Z,7.61
2018-03-10T19:50:12.404Z,7.67
2018-03-10T19:52:40.102Z,7.67
2018-03-10T19:55:07.826Z,7.74
2018-03-10T19:57:35.502Z,7.71
2018-03-10T20:00:03.248Z,7.85
2018-03-10T20:02:30.967Z,7.89
2018-03-10T20:04:58.674Z,7.99
2018-03-10T20:07:26.416Z,8.06
2018-03-10T20:09:54.106Z,7.93
2018-03-10T20:12:21.895Z,7.98
2018-03-10T20:14:49.606Z,8.07
2018-03-10T20:17:17.346Z,8.19
2018-03-10T20:19:45.092Z,8.19
2018-03-10T20:22:12.814Z,8.25
2018-03-10T20:24:40.498Z,8.18
2018-03-10T20:27:08.239Z,8.24
2018-03-10T20:29:35.925Z,8.25
2018-03-10T20:32:03.655Z,8.26
2018-03-10T20:34:31.337Z,8.29
2018-03-10T20:36:59.055Z,8.31
2018-03-10T20:39:26.774Z,8.14
2018-03-10T20:41:54.527Z,7.90
2018-03-10T20:44:22.228Z,7.80
2018-03-10T20:46:49.955Z,7.80
2018-03-10T20:49:17.625Z,7.83
2018-03-10T20:51:45.369Z,7.88
2018-03-10T20:54:13.047Z,7.79
2018-03-10T20:56:40.772Z,7.79
2018-03-10T20:59:08.449Z,8.03
2018-03-10T21:01:36.182Z,8.07
2018-03-10T21:04:03.894Z,8.08
2018-03-10T21:06:31.609Z,7.89
2018-03-10T21:08:59.363Z,7.73
2018-03-10T21:11:27.089Z,7.68
2018-03-10T21:13:54.786Z,7.69
2018-03-10T21:16:22.459Z,7.67
2018-03-10T21:18:50.198Z,7.88
2018-03-10T21:21:18.034Z,7.95
2018-03-10T21:23:45.723Z,8.11
2018-03-10T21:26:13.443Z,8.14
2018-03-10T21:28:41.195Z,8.18
2018-03-10T21:31:08.941Z,8.21
2018-03-10T21:33:36.622Z,8.29
2018-03-10T21:36:04.363Z,8.30
2018-03-10T21:38:32.064Z,8.26
2018-03-10T21:40:59.833Z,8.19
2018-03-10T21:43:27.534Z,8.25
2018-03-10T21:45:55.252Z,8.23
2018-03-10T21:48:22.977Z,8.32
2018-03-10T21:50:50.731Z,8.28
2018-03-10T21:53:18.876Z,8.27
2018-03-10T21:55:46.614Z,8.14
2018-03-10T21:58:14.388Z,8.00
2018-03-10T22:00:42.119Z,7.99
2018-03-10T22:03:09.810Z,7.82
2018-03-10T22:05:37.534Z,7.81
2018-03-10T22:08:05.274Z,7.90
2018-03-10T22:10:33.035Z,7.98
2018-03-10T22:13:00.892Z,7.94
2018-03-10T22:15:28.655Z,7.93
2018-03-10T22:17:56.334Z,7.98
2018-03-10T22:20:24.131Z,7.91
2018-03-10T22:22:51.821Z,7.90
2018-03-10T22:25:19.628Z,7.82
2018-03-10T22:27:47.321Z,7.92
2018-03-10T22:30:15.021Z,8.01
2018-03-10T22:32:42.775Z,7.99
2018-03-10T22:35:10.534Z,7.93
2018-03-10T22:37:38.228Z,7.87
2018-03-10T22:40:06.016Z,7.93
2018-03-10T22:42:33.747Z,7.90
2018-03-10T22:45:01.467Z,7.78
2018-03-10T22:47:29.145Z,7.79
2018-03-10T22:49:56.897Z,7.69
2018-03-10T22:52:24.609Z,-144.12
2018-03-10T22:54:52.366Z,-144.12
2018-03-10T22:57:20.075Z,-144.12
2018-03-10T22:59:47.794Z,-144.12
2018-03-10T23:02:15.553Z,-144.12
2018-03-10T23:04:43.245Z,-144.12
2018-03-10T23:07:10.988Z,-144.12
2018-03-10T23:09:38.702Z,-144.12
2018-03-10T23:12:06.516Z,-144.12
2018-03-10T23:14:34.245Z,-144.12
2018-03-10T23:17:02.058Z,-144.12
2018-03-10T23:19:29.761Z,-144.12
2018-03-10T23:21:57.484Z,-144.12
2018-03-10T23:24:25.157Z,-144.12
2018-03-10T23:26:52.896Z,-144.12
2018-03-10T23:29:20.606Z,-144.12
2018-03-10T23:31:48.373Z,-144.12
2018-03-10T23:34:16.080Z,-144.12
2018-03-10T23:36:43.854Z,-144.12
2018-03-10T23:39:11.805Z,-144.12
2018-03-10T23:41:39.457Z,-144.12
2018-03-10T23:44:07.186Z,-144.12
2018-03-10T23:46:34.895Z,-144.12
2018-03-10T23:49:02.627Z,-144.12
2018-03-10T23:51:30.374Z,-144.12
2018-03-10T23:53:58.102Z,-144.12
2018-03-10T23:56:25.798Z,-144.12
2018-03-10T23:58:53.551Z,-144.12
